createdAt,value
2018-01-02T00:00:36.286Z,99326.78
2018-01-02T00:01:38.734Z,99326.44
2018-01-02T00:02:41.193Z,99328.68
2018-01-02T00:03:43.656Z,99329.15
2018-01-02T00:04:46.144Z,99335.98
2018-01-02T00:05:48.604Z,99334.97
2018-01-02T00:06:51.048Z,99335.19
2018-01-02T00:07:53.503Z,99337.28
2018-01-02T00:08:55.954Z,99344.98
2018-01-02T00:09:58.422Z,99338.13
2018-01-02T00:11:00.874Z,99341.55
2018-01-02T00:12:03.335Z,99341.19
2018-01-02T00:13:05.777Z,99342.91
2018-01-02T00:14:08.221Z,99347.91
2018-01-02T00:15:10.696Z,99345.98
2018-01-02T00:16:13.146Z,99344.89
2018-01-02T00:17:15.611Z,99346.94
2018-01-02T00:18:18.062Z,99349.89
2018-01-02T00:19:20.529Z,99354.23
2018-01-02T00:20:23.006Z,99350.06
2018-01-02T00:21:25.450Z,99354.06
2018-01-02T00:22:27.912Z,99352.76
2018-01-02T00:23:30.357Z,99354.11
2018-01-02T00:24:32.838Z,99357.22
2018-01-02T00:25:35.301Z,99359.19
2018-01-02T00:26:37.812Z,99357.41
2018-01-02T00:27:40.254Z,99360.05
2018-01-02T00:28:42.712Z,99359.73
2018-01-02T00:29:45.161Z,99361.34
2018-01-02T00:30:47.645Z,99364.69
2018-01-02T00:31:50.090Z,99364.19
2018-01-02T00:32:52.554Z,99370.02
2018-01-02T00:33:54.997Z,99366.80
2018-01-02T00:34:57.446Z,99373.94
2018-01-02T00:35:59.894Z,99379.49
2018-01-02T00:37:02.360Z,99381.14
2018-01-02T00:38:04.810Z,99381.38
2018-01-02T00:39:07.271Z,99381.83
2018-01-02T00:40:09.752Z,99383.77
2018-01-02T00:41:12.198Z,99387.42
2018-01-02T00:42:14.668Z,99390.03
2018-01-02T00:43:17.117Z,99390.94
2018-01-02T00:44:19.558Z,99391.37
2018-01-02T00:45:22.040Z,99391.95
2018-01-02T00:46:24.505Z,99401.26
2018-01-02T00:47:26.968Z,99399.42
2018-01-02T00:48:29.531Z,99391.98
2018-01-02T00:49:31.981Z,99395.52
2018-01-02T00:50:34.464Z,99404.77
2018-01-02T00:51:36.913Z,99399.29
2018-01-02T00:52:39.366Z,99398.99
2018-01-02T00:53:41.878Z,99406.25
2018-01-02T00:54:44.329Z,99411.08
2018-01-02T00:55:46.824Z,99410.62
2018-01-02T00:56:49.289Z,99412.06
2018-01-02T00:57:51.764Z,99411.44
2018-01-02T00:58:54.213Z,99415.80
2018-01-02T00:59:56.657Z,99411.77
2018-01-02T01:00:59.144Z,99411.77
2018-01-02T01:02:01.622Z,99412.62
2018-01-02T01:03:04.096Z,99409.92
2018-01-02T01:04:06.541Z,99414.66
2018-01-02T01:05:08.991Z,99410.83
2018-01-02T01:06:11.579Z,99416.95
2018-01-02T01:07:14.038Z,99418.57
2018-01-02T01:08:16.490Z,99423.50
2018-01-02T01:09:18.956Z,99413.75
2018-01-02T01:10:21.401Z,99432.48
2018-01-02T01:11:23.886Z,99429.91
2018-01-02T01:12:26.352Z,99427.88
2018-01-02T01:13:28.801Z,99426.12
2018-01-02T01:14:31.253Z,99423.24
2018-01-02T01:15:33.719Z,99431.58
2018-01-02T01:16:36.203Z,99435.44
2018-01-02T01:17:38.657Z,99435.18
2018-01-02T01:18:41.124Z,99438.59
2018-01-02T01:19:43.603Z,99439.47
2018-01-02T01:20:46.064Z,99438.54
2018-01-02T01:21:48.539Z,99446.03
2018-01-02T01:22:51.012Z,99449.80
2018-01-02T01:23:53.476Z,99452.23
2018-01-02T01:24:55.931Z,99458.34
2018-01-02T01:25:58.402Z,99455.31
2018-01-02T01:27:00.873Z,99452.23
2018-01-02T01:28:03.946Z,99464.77
2018-01-02T01:29:06.417Z,99466.79
2018-01-02T01:30:08.884Z,99459.47
2018-01-02T01:31:11.349Z,99461.14
2018-01-02T01:32:13.813Z,99465.66
2018-01-02T01:33:16.261Z,99467.05
2018-01-02T01:34:18.706Z,99469.50
2018-01-02T01:35:21.161Z,99472.12
2018-01-02T01:36:23.632Z,99473.39
2018-01-02T01:37:26.147Z,99478.09
2018-01-02T01:38:28.595Z,99474.24
2018-01-02T01:39:31.046Z,99479.72
2018-01-02T01:40:33.503Z,99480.94
2018-01-02T01:41:35.979Z,99485.30
2018-01-02T01:42:38.480Z,99481.21
2018-01-02T01:43:40.950Z,99483.20
2018-01-02T01:44:43.406Z,99487.33
2018-01-02T01:45:45.857Z,99493.77
2018-01-02T01:46:48.328Z,99488.47
2018-01-02T01:47:50.815Z,99486.05
2018-01-02T01:48:55.029Z,99492.66
2018-01-02T01:49:57.495Z,99496.27
2018-01-02T01:50:59.964Z,99506.12
2018-01-02T01:52:02.417Z,99496.09
2018-01-02T01:53:04.899Z,99498.64
2018-01-02T01:54:07.350Z,99502.97
2018-01-02T01:55:09.797Z,99497.51
2018-01-02T01:56:12.272Z,99492.89
2018-01-02T01:57:14.735Z,99506.22
2018-01-02T01:58:17.217Z,99502.61
2018-01-02T01:59:19.669Z,99503.84
2018-01-02T02:00:22.135Z,99511.50
2018-01-02T02:01:24.600Z,99505.97
2018-01-02T02:02:27.054Z,99509.05
2018-01-02T02:03:29.529Z,99506.59
2018-01-02T02:04:32.000Z,99508.13
2018-01-02T02:05:34.454Z,99511.14
2018-01-02T02:06:36.909Z,99508.11
2018-01-02T02:07:39.359Z,99509.09
2018-01-02T02:08:41.829Z,99506.44
2018-01-02T02:09:44.282Z,99508.86
2018-01-02T02:10:46.747Z,99511.63
2018-01-02T02:11:49.209Z,99510.71
2018-01-02T02:12:51.672Z,99508.13
2018-01-02T02:13:54.157Z,99511.56
2018-01-02T02:14:56.620Z,99512.48
2018-01-02T02:15:59.083Z,99512.98
2018-01-02T02:17:01.545Z,99516.84
2018-01-02T02:18:04.013Z,99518.38
2018-01-02T02:19:06.487Z,99517.27
2018-01-02T02:20:08.947Z,99520.81
2018-01-02T02:21:11.393Z,99523.92
2018-01-02T02:22:13.856Z,99524.41
2018-01-02T02:23:16.297Z,99519.35
2018-01-02T02:24:18.766Z,99523.01
2018-01-02T02:25:21.231Z,99517.68
2018-01-02T02:26:23.695Z,99526.25
2018-01-02T02:27:26.149Z,99525.39
2018-01-02T02:28:28.601Z,99520.69
2018-01-02T02:29:31.070Z,99521.76
2018-01-02T02:30:33.522Z,99522.53
2018-01-02T02:31:35.988Z,99522.48
2018-01-02T02:32:38.440Z,99520.77
2018-01-02T02:33:40.906Z,99520.77
2018-01-02T02:34:43.400Z,99524.85
2018-01-02T02:35:45.853Z,99526.04
2018-01-02T02:36:48.315Z,99525.64
2018-01-02T02:37:50.781Z,99523.45
2018-01-02T02:38:53.248Z,99524.44
2018-01-02T02:39:55.723Z,99531.13
2018-01-02T02:41:06.950Z,99524.15
2018-01-02T02:42:09.400Z,99522.30
2018-01-02T02:43:11.861Z,99524.15
2018-01-02T02:44:14.324Z,99531.47
2018-01-02T02:45:16.797Z,99527.16
2018-01-02T02:46:19.255Z,99522.96
2018-01-02T02:47:21.731Z,99527.80
2018-01-02T02:48:24.195Z,99529.94
2018-01-02T02:49:26.659Z,99531.45
2018-01-02T02:50:29.140Z,99530.97
2018-01-02T02:51:31.615Z,99532.50
2018-01-02T02:52:34.067Z,99530.95
2018-01-02T02:53:36.536Z,99528.72
2018-01-02T02:54:39.002Z,99526.52
2018-01-02T02:55:41.478Z,99542.45
2018-01-02T02:56:43.940Z,99530.80
2018-01-02T02:57:46.409Z,99530.03
2018-01-02T02:58:48.872Z,99534.00
2018-01-02T02:59:51.352Z,99533.90
2018-01-02T03:00:53.859Z,99536.52
2018-01-02T03:01:56.310Z,99537.69
2018-01-02T03:02:58.757Z,99533.49
2018-01-02T03:04:01.201Z,99534.15
2018-01-02T03:05:03.663Z,99543.71
2018-01-02T03:06:06.143Z,99537.11
2018-01-02T03:07:08.607Z,99545.79
2018-01-02T03:08:11.069Z,99544.52
2018-01-02T03:09:13.523Z,99544.20
2018-01-02T03:10:15.976Z,99542.23
2018-01-02T03:11:18.464Z,99546.64
2018-01-02T03:12:20.928Z,99543.36
2018-01-02T03:13:23.374Z,99547.50
2018-01-02T03:14:25.822Z,99544.43
2018-01-02T03:15:28.280Z,99550.35
2018-01-02T03:16:30.750Z,99548.73
2018-01-02T03:17:33.214Z,99545.52
2018-01-02T03:18:35.671Z,99553.83
2018-01-02T03:19:38.140Z,99549.22
2018-01-02T03:20:40.585Z,99549.64
2018-01-02T03:21:43.050Z,99555.81
2018-01-02T03:22:45.494Z,99559.77
2018-01-02T03:23:47.938Z,99561.26
2018-01-02T03:24:50.400Z,99556.89
2018-01-02T03:25:52.873Z,99562.05
2018-01-02T03:26:55.352Z,99558.73
2018-01-02T03:27:57.819Z,99556.98
2018-01-02T03:29:00.284Z,99558.48
2018-01-02T03:30:02.749Z,99558.87
2018-01-02T03:31:05.202Z,99560.66
2018-01-02T03:32:07.674Z,99558.89
2018-01-02T03:33:10.120Z,99567.65
2018-01-02T03:34:12.570Z,99556.12
2018-01-02T03:35:15.036Z,99560.42
2018-01-02T03:36:17.477Z,99563.54
2018-01-02T03:37:19.963Z,99561.69
2018-01-02T03:38:22.433Z,99561.37
2018-01-02T03:39:24.886Z,99569.83
2018-01-02T03:40:27.348Z,99560.80
2018-01-02T03:41:29.797Z,99562.66
2018-01-02T03:42:32.269Z,99565.16
2018-01-02T03:43:34.717Z,99566.69
2018-01-02T03:44:37.163Z,99568.00
2018-01-02T03:45:39.617Z,99570.22
2018-01-02T03:46:42.062Z,99568.96
2018-01-02T03:47:44.552Z,99567.19
2018-01-02T03:48:46.993Z,99575.25
2018-01-02T03:49:49.435Z,99584.78
2018-01-02T03:50:51.882Z,99586.37
2018-01-02T03:51:54.376Z,99579.30
2018-01-02T03:52:56.859Z,99588.19
2018-01-02T03:53:59.320Z,99582.77
2018-01-02T03:55:01.771Z,99593.07
2018-01-02T03:56:04.213Z,99583.32
2018-01-02T03:57:06.658Z,99589.45
2018-01-02T03:58:09.140Z,99590.44
2018-01-02T03:59:11.600Z,99594.75
2018-01-02T04:00:14.068Z,99593.17
2018-01-02T04:01:16.513Z,99594.23
2018-01-02T04:02:18.992Z,99597.40
2018-01-02T04:03:21.480Z,99600.31
2018-01-02T04:04:24.245Z,99593.50
2018-01-02T04:05:26.707Z,99597.45
2018-01-02T04:06:29.164Z,99589.69
2018-01-02T04:07:31.605Z,99595.59
2018-01-02T04:08:34.078Z,99595.77
2018-01-02T04:09:36.529Z,99599.84
2018-01-02T04:10:38.992Z,99604.17
2018-01-02T04:11:41.435Z,99608.39
2018-01-02T04:12:43.896Z,99598.17
2018-01-02T04:13:46.384Z,99603.17
2018-01-02T04:14:48.863Z,99606.56
2018-01-02T04:15:51.319Z,99604.22
2018-01-02T04:16:53.771Z,99606.23
2018-01-02T04:17:56.325Z,99609.57
2018-01-02T04:18:58.790Z,99612.16
2018-01-02T04:20:01.241Z,99614.76
2018-01-02T04:21:03.690Z,99613.80
2018-01-02T04:22:06.134Z,99614.03
2018-01-02T04:23:08.577Z,99615.27
2018-01-02T04:24:11.055Z,99617.05
2018-01-02T04:25:13.520Z,99615.91
2018-01-02T04:26:15.984Z,99611.69
2018-01-02T04:27:18.447Z,99618.94
2018-01-02T04:28:20.912Z,99617.46
2018-01-02T04:29:23.391Z,99618.84
2018-01-02T04:30:25.841Z,99624.80
2018-01-02T04:31:28.293Z,99625.67
2018-01-02T04:32:30.746Z,99626.48
2018-01-02T04:33:33.211Z,99628.33
2018-01-02T04:34:35.692Z,99631.41
2018-01-02T04:35:38.141Z,99631.92
2018-01-02T04:36:40.589Z,99638.83
2018-01-02T04:37:43.070Z,99632.45
2018-01-02T04:38:45.532Z,99635.95
2018-01-02T04:39:48.024Z,99637.69
2018-01-02T04:40:50.473Z,99631.02
2018-01-02T04:41:52.922Z,99635.41
2018-01-02T04:42:55.372Z,99637.45
2018-01-02T04:43:57.833Z,99638.48
2018-01-02T04:45:00.309Z,99643.95
2018-01-02T04:46:02.758Z,99645.06
2018-01-02T04:47:05.201Z,99645.75
2018-01-02T04:48:07.649Z,99646.48
2018-01-02T04:49:10.113Z,99647.13
2018-01-02T04:50:12.578Z,99656.13
2018-01-02T04:51:15.044Z,99654.91
2018-01-02T04:52:17.493Z,99656.13
2018-01-02T04:53:19.939Z,99659.75
2018-01-02T04:54:22.382Z,99654.23
2018-01-02T04:55:24.859Z,99659.58
2018-01-02T04:56:27.343Z,99662.48
2018-01-02T04:57:29.804Z,99663.84
2018-01-02T04:58:32.268Z,99664.44
2018-01-02T04:59:34.728Z,99667.45
2018-01-02T05:00:37.220Z,99670.18
2018-01-02T05:01:39.684Z,99667.90
2018-01-02T05:02:42.152Z,99672.68
2018-01-02T05:03:44.594Z,99670.17
2018-01-02T05:04:47.069Z,99677.09
2018-01-02T05:05:49.537Z,99675.59
2018-01-02T05:06:52.008Z,99679.83
2018-01-02T05:07:54.462Z,99682.92
2018-01-02T05:08:56.905Z,99679.63
2018-01-02T05:09:59.349Z,99689.08
2018-01-02T05:11:01.828Z,99691.80
2018-01-02T05:12:04.282Z,99697.33
2018-01-02T05:13:06.748Z,99705.04
2018-01-02T05:14:09.194Z,99707.05
2018-01-02T05:15:11.655Z,99703.66
2018-01-02T05:16:14.130Z,99705.88
2018-01-02T05:17:16.591Z,99712.78
2018-01-02T05:18:19.038Z,99696.97
2018-01-02T05:19:21.511Z,99708.72
2018-01-02T05:20:23.975Z,99708.48
2018-01-02T05:21:26.461Z,99706.22
2018-01-02T05:22:28.906Z,99715.47
2018-01-02T05:23:31.345Z,99716.38
2018-01-02T05:24:33.812Z,99724.23
2018-01-02T05:25:36.273Z,99718.31
2018-01-02T05:26:38.737Z,99731.05
2018-01-02T05:27:41.204Z,99727.51
2018-01-02T05:28:43.667Z,99734.02
2018-01-02T05:29:46.114Z,99734.02
2018-01-02T05:30:48.557Z,99737.99
2018-01-02T05:31:51.022Z,99739.66
2018-01-02T05:32:53.466Z,99748.06
2018-01-02T05:33:55.932Z,99750.25
2018-01-02T05:34:58.396Z,99751.86
2018-01-02T05:36:00.861Z,99753.09
2018-01-02T05:37:03.329Z,99757.06
2018-01-02T05:38:05.792Z,99763.97
2018-01-02T05:39:08.252Z,99757.52
2018-01-02T05:40:10.698Z,99760.62
2018-01-02T05:41:13.154Z,99765.58
2018-01-02T05:42:15.632Z,99758.30
2018-01-02T05:43:18.081Z,99767.19
2018-01-02T05:44:20.540Z,99768.78
2018-01-02T05:45:22.981Z,99766.24
2018-01-02T05:46:25.452Z,99769.42
2018-01-02T05:47:27.919Z,99770.22
2018-01-02T05:48:30.370Z,99772.56
2018-01-02T05:49:32.814Z,99775.25
2018-01-02T05:50:35.275Z,99782.27
2018-01-02T05:51:37.739Z,99789.98
2018-01-02T05:52:40.224Z,99793.54
2018-01-02T05:53:42.671Z,99788.06
2018-01-02T05:54:45.131Z,99794.36
2018-01-02T05:55:47.592Z,99791.83
2018-01-02T05:56:50.058Z,99796.64
2018-01-02T05:57:52.564Z,99794.12
2018-01-02T05:58:55.014Z,99790.73
2018-01-02T05:59:57.483Z,99797.79
2018-01-02T06:00:59.929Z,99792.27
2018-01-02T06:02:02.392Z,99805.13
2018-01-02T06:03:04.858Z,99802.80
2018-01-02T06:04:07.302Z,99804.30
2018-01-02T06:05:09.760Z,99804.36
2018-01-02T06:06:12.608Z,99811.05
2018-01-02T06:07:15.072Z,99811.91
2018-01-02T06:08:17.592Z,99808.60
2018-01-02T06:09:20.046Z,99809.28
2018-01-02T06:10:22.494Z,99814.39
2018-01-02T06:11:24.946Z,99822.84
2018-01-02T06:12:27.397Z,99817.85
2018-01-02T06:13:29.880Z,99818.83
2018-01-02T06:14:32.334Z,99823.70
2018-01-02T06:15:34.812Z,99825.72
2018-01-02T06:16:37.276Z,99828.22
2018-01-02T06:17:39.725Z,99832.65
2018-01-02T06:18:42.207Z,99833.44
2018-01-02T06:19:44.676Z,99833.27
2018-01-02T06:20:47.140Z,99834.44
2018-01-02T06:21:49.594Z,99838.22
2018-01-02T06:22:52.060Z,99840.48
2018-01-02T06:23:54.535Z,99844.12
2018-01-02T06:24:57.016Z,99850.63
2018-01-02T06:25:59.485Z,99849.86
2018-01-02T06:27:01.984Z,99849.02
2018-01-02T06:28:04.439Z,99853.70
2018-01-02T06:29:06.902Z,99849.61
2018-01-02T06:30:09.354Z,99851.02
2018-01-02T06:31:11.829Z,99859.36
2018-01-02T06:32:14.292Z,99857.86
2018-01-02T06:33:16.756Z,99861.33
2018-01-02T06:34:19.249Z,99857.45
2018-01-02T06:35:21.716Z,99856.08
2018-01-02T06:36:24.169Z,99856.56
2018-01-02T06:37:26.639Z,99858.85
2018-01-02T06:38:29.105Z,99869.75
2018-01-02T06:39:31.578Z,99873.72
2018-01-02T06:40:34.032Z,99869.91
2018-01-02T06:41:36.505Z,99882.55
2018-01-02T06:42:38.950Z,99881.70
2018-01-02T06:43:41.459Z,99881.69
2018-01-02T06:44:43.934Z,99883.45
2018-01-02T06:45:46.399Z,99884.56
2018-01-02T06:46:48.868Z,99890.62
2018-01-02T06:47:51.332Z,99888.87
2018-01-02T06:48:53.782Z,99884.05
2018-01-02T06:49:56.264Z,99883.95
2018-01-02T06:50:58.724Z,99893.06
2018-01-02T06:52:01.173Z,99892.31
2018-01-02T06:53:03.626Z,99892.50
2018-01-02T06:54:06.082Z,99896.17
2018-01-02T06:55:08.550Z,99896.93
2018-01-02T06:56:11.007Z,99891.20
2018-01-02T06:57:13.469Z,99900.13
2018-01-02T06:58:15.933Z,99898.20
2018-01-02T06:59:18.382Z,99902.08
2018-01-02T07:00:20.885Z,99906.72
2018-01-02T07:01:23.350Z,99902.66
2018-01-02T07:02:25.855Z,99908.41
2018-01-02T07:03:28.298Z,99902.53
2018-01-02T07:04:30.763Z,99899.30
2018-01-02T07:05:33.246Z,99907.62
2018-01-02T07:06:35.703Z,99909.52
2018-01-02T07:07:38.172Z,99908.63
2018-01-02T07:08:40.632Z,99916.81
2018-01-02T07:09:43.082Z,99916.17
2018-01-02T07:10:45.552Z,99913.91
2018-01-02T07:11:48.014Z,99921.80
2018-01-02T07:12:50.457Z,99920.91
2018-01-02T07:13:52.907Z,99930.36
2018-01-02T07:14:55.380Z,99938.86
2018-01-02T07:15:57.862Z,99932.80
2018-01-02T07:17:00.336Z,99934.15
2018-01-02T07:18:03.530Z,99938.71
2018-01-02T07:19:05.978Z,99935.87
2018-01-02T07:20:08.440Z,99940.13
2018-01-02T07:21:10.987Z,99939.08
2018-01-02T07:22:13.450Z,99942.23
2018-01-02T07:23:15.915Z,99948.67
2018-01-02T07:24:18.376Z,99943.38
2018-01-02T07:25:21.352Z,99945.72
2018-01-02T07:26:23.840Z,99957.59
2018-01-02T07:27:26.285Z,99951.97
2018-01-02T07:28:28.743Z,99954.78
2018-01-02T07:29:31.204Z,99958.52
2018-01-02T07:30:33.672Z,99958.78
2018-01-02T07:31:36.137Z,99963.89
2018-01-02T07:32:38.657Z,99957.77
2018-01-02T07:33:41.120Z,99970.00
2018-01-02T07:34:43.684Z,99967.88
2018-01-02T07:35:46.223Z,99971.58
2018-01-02T07:36:48.697Z,99970.81
2018-01-02T07:37:51.168Z,99980.58
2018-01-02T07:38:53.627Z,99979.00
2018-01-02T07:39:56.092Z,99978.25
2018-01-02T07:40:58.542Z,99984.80
2018-01-02T07:42:01.024Z,99982.00
2018-01-02T07:43:03.488Z,99994.39
2018-01-02T07:44:05.942Z,99992.81
2018-01-02T07:45:08.393Z,99997.66
2018-01-02T07:46:10.842Z,99996.77
2018-01-02T07:47:13.372Z,100001.66
2018-01-02T07:48:15.833Z,100010.23
2018-01-02T07:49:18.294Z,100012.30
2018-01-02T07:50:20.764Z,100012.11
2018-01-02T07:51:23.231Z,100013.08
2018-01-02T07:52:25.701Z,100017.88
2018-01-02T07:53:28.149Z,100020.44
2018-01-02T07:54:30.626Z,100023.57
2018-01-02T07:55:33.096Z,100027.62
2018-01-02T07:56:35.567Z,100035.03
2018-01-02T07:57:38.056Z,100030.70
2018-01-02T07:58:40.515Z,100038.80
2018-01-02T07:59:43.068Z,100037.61
2018-01-02T08:00:45.522Z,100053.27
2018-01-02T08:01:47.992Z,100053.27
2018-01-02T08:02:50.472Z,100050.60
2018-01-02T08:03:52.944Z,100061.97
2018-01-02T08:04:55.420Z,100065.06
2018-01-02T08:05:57.887Z,100067.86
2018-01-02T08:07:00.348Z,100072.75
2018-01-02T08:08:02.837Z,100070.91
2018-01-02T08:09:05.309Z,100074.53
2018-01-02T08:10:07.763Z,100081.80
2018-01-02T08:11:10.231Z,100076.13
2018-01-02T08:12:12.697Z,100082.42
2018-01-02T08:13:15.173Z,100085.90
2018-01-02T08:14:17.683Z,100085.98
2018-01-02T08:15:20.145Z,100095.86
2018-01-02T08:16:22.602Z,100087.66
2018-01-02T08:17:25.089Z,100090.64
2018-01-02T08:18:27.596Z,100099.13
2018-01-02T08:19:30.076Z,100099.66
2018-01-02T08:20:32.560Z,100100.20
2018-01-02T08:21:35.036Z,100099.30
2018-01-02T08:22:37.506Z,100098.67
2018-01-02T08:23:39.999Z,100100.31
2018-01-02T08:24:42.453Z,100103.82
2018-01-02T08:25:44.944Z,100106.72
2018-01-02T08:26:47.408Z,100110.73
2018-01-02T08:27:49.862Z,100115.51
2018-01-02T08:28:52.335Z,100118.61
2018-01-02T08:29:54.824Z,100110.56
2018-01-02T08:30:57.282Z,100124.55
2018-01-02T08:31:59.739Z,100120.42
2018-01-02T08:33:02.202Z,100074.73
2018-01-02T08:34:04.678Z,100129.61
2018-01-02T08:35:07.134Z,100123.13
2018-01-02T08:36:09.599Z,100126.73
2018-01-02T08:37:12.074Z,100119.48
2018-01-02T08:38:14.522Z,100128.19
2018-01-02T08:39:17.003Z,100130.81
2018-01-02T08:40:19.464Z,100131.47
2018-01-02T08:41:21.935Z,100137.56
2018-01-02T08:42:24.396Z,100140.44
2018-01-02T08:43:26.860Z,100135.58
2018-01-02T08:44:29.348Z,100132.41
2018-01-02T08:45:31.821Z,100143.46
2018-01-02T08:46:34.285Z,100146.83
2018-01-02T08:47:36.754Z,100149.64
2018-01-02T08:48:39.215Z,100152.83
2018-01-02T08:49:41.695Z,100156.10
2018-01-02T08:50:44.151Z,100157.62
2018-01-02T08:51:46.602Z,100155.89
2018-01-02T08:52:49.069Z,100155.89
2018-01-02T08:53:51.539Z,100155.79
2018-01-02T08:54:54.036Z,100166.37
2018-01-02T08:55:56.485Z,100163.69
2018-01-02T08:56:58.956Z,100161.77
2018-01-02T08:58:01.691Z,100170.50
2018-01-02T08:59:04.201Z,100175.91
2018-01-02T09:00:06.674Z,100170.18
2018-01-02T09:01:09.151Z,100173.86
2018-01-02T09:02:11.672Z,100175.20
2018-01-02T09:03:14.136Z,100178.58
2018-01-02T09:04:16.600Z,100181.58
2018-01-02T09:05:19.070Z,100179.10
2018-01-02T09:06:21.543Z,100175.77
2018-01-02T09:07:24.004Z,100182.22
2018-01-02T09:08:26.467Z,100186.80
2018-01-02T09:09:28.927Z,100183.75
2018-01-02T09:10:31.412Z,100191.12
2018-01-02T09:11:33.857Z,100197.49
2018-01-02T09:12:48.928Z,100196.81
2018-01-02T09:13:57.110Z,100191.70
2018-01-02T09:14:59.558Z,100190.02
2018-01-02T09:16:02.030Z,100186.21
2018-01-02T09:17:04.495Z,100191.78
2018-01-02T09:18:06.959Z,100190.92
2018-01-02T09:19:09.413Z,100194.13
2018-01-02T09:20:11.876Z,100188.98
2018-01-02T09:21:14.340Z,100188.11
2018-01-02T09:22:16.789Z,100193.34
2018-01-02T09:23:19.239Z,100195.16
2018-01-02T09:24:21.706Z,100201.25
2018-01-02T09:25:24.173Z,100195.77
2018-01-02T09:26:26.635Z,100198.47
2018-01-02T09:27:29.104Z,100206.74
2018-01-02T09:28:31.549Z,100200.77
2018-01-02T09:29:33.998Z,100203.78
2018-01-02T09:30:36.459Z,100202.52
2018-01-02T09:31:38.914Z,100200.82
2018-01-02T09:32:41.380Z,100206.42
2018-01-02T09:33:43.829Z,100201.11
2018-01-02T09:34:46.282Z,100210.11
2018-01-02T09:35:48.738Z,100208.75
2018-01-02T09:36:51.190Z,100216.34
2018-01-02T09:37:53.639Z,100213.00
2018-01-02T09:38:56.105Z,100216.94
2018-01-02T09:39:58.558Z,100221.36
2018-01-02T09:41:01.028Z,100214.41
2018-01-02T09:42:03.506Z,100218.73
2018-01-02T09:43:05.977Z,100215.25
2018-01-02T09:44:08.444Z,100222.77
2018-01-02T09:45:10.894Z,100216.72
2018-01-02T09:46:13.361Z,100217.38
2018-01-02T09:47:15.817Z,100218.30
2018-01-02T09:48:18.265Z,100219.08
2018-01-02T09:49:20.730Z,100221.42
2018-01-02T09:50:23.194Z,100222.68
2018-01-02T09:51:25.663Z,100224.05
2018-01-02T09:52:28.157Z,100223.14
2018-01-02T09:53:30.637Z,100220.67
2018-01-02T09:54:33.100Z,100226.73
2018-01-02T09:55:35.550Z,100223.11
2018-01-02T09:56:38.166Z,100227.25
2018-01-02T09:57:40.628Z,100226.48
2018-01-02T09:58:43.120Z,100234.91
2018-01-02T09:59:45.584Z,100226.39
2018-01-02T10:00:48.047Z,100231.05
2018-01-02T10:01:50.516Z,100231.19
2018-01-02T10:02:52.981Z,100232.38
2018-01-02T10:03:55.439Z,100230.91
2018-01-02T10:04:57.912Z,100234.00
2018-01-02T10:06:00.365Z,100232.89
2018-01-02T10:07:02.832Z,100235.48
2018-01-02T10:08:05.278Z,100238.01
2018-01-02T10:09:10.132Z,100242.17
2018-01-02T10:10:12.586Z,100240.06
2018-01-02T10:11:15.038Z,100240.05
2018-01-02T10:12:17.493Z,100233.77
2018-01-02T10:13:19.972Z,100238.36
2018-01-02T10:14:22.430Z,100237.52
2018-01-02T10:15:24.898Z,100238.64
2018-01-02T10:16:27.364Z,100229.58
2018-01-02T10:17:29.818Z,100242.95
2018-01-02T10:18:32.278Z,100241.00
2018-01-02T10:19:34.739Z,100232.45
2018-01-02T10:20:37.214Z,100236.89
2018-01-02T10:21:39.673Z,100241.20
2018-01-02T10:22:42.114Z,100238.80
2018-01-02T10:23:44.566Z,100240.02
2018-01-02T10:24:47.013Z,100238.23
2018-01-02T10:25:49.476Z,100239.31
2018-01-02T10:26:51.934Z,100234.02
2018-01-02T10:27:54.390Z,100238.70
2018-01-02T10:28:56.864Z,100239.72
2018-01-02T10:29:59.328Z,100240.14
2018-01-02T10:31:01.788Z,100242.09
2018-01-02T10:32:04.256Z,100242.96
2018-01-02T10:33:06.710Z,100239.82
2018-01-02T10:34:09.181Z,100243.23
2018-01-02T10:35:11.688Z,100241.80
2018-01-02T10:36:14.148Z,100243.84
2018-01-02T10:37:17.014Z,100247.24
2018-01-02T10:38:19.483Z,100244.20
2018-01-02T10:39:21.936Z,100249.43
2018-01-02T10:40:24.390Z,100240.69
2018-01-02T10:41:26.860Z,100238.90
2018-01-02T10:42:29.328Z,100245.34
2018-01-02T10:43:31.800Z,100242.47
2018-01-02T10:44:34.249Z,100235.80
2018-01-02T10:45:36.714Z,100237.54
2018-01-02T10:46:39.261Z,100239.66
2018-01-02T10:47:41.728Z,100240.17
2018-01-02T10:48:44.178Z,100241.24
2018-01-02T10:49:46.716Z,100238.70
2018-01-02T10:50:49.190Z,100235.10
2018-01-02T10:51:51.638Z,100236.09
2018-01-02T10:52:54.094Z,100239.52
2018-01-02T10:53:56.546Z,100237.58
2018-01-02T10:54:59.002Z,100236.83
2018-01-02T10:56:01.458Z,100242.15
2018-01-02T10:57:03.914Z,100242.62
2018-01-02T10:58:06.361Z,100238.32
2018-01-02T10:59:08.814Z,100238.72
2018-01-02T11:00:11.280Z,100238.03
2018-01-02T11:01:19.448Z,100240.19
2018-01-02T11:02:21.901Z,100244.74
2018-01-02T11:03:24.354Z,100244.39
2018-01-02T11:04:26.825Z,100243.22
2018-01-02T11:05:29.274Z,100250.27
2018-01-02T11:06:31.742Z,100239.39
2018-01-02T11:07:34.243Z,100247.37
2018-01-02T11:08:36.707Z,100244.88
2018-01-02T11:09:39.172Z,100249.94
2018-01-02T11:10:44.396Z,100239.63
2018-01-02T11:11:52.505Z,100241.52
2018-01-02T11:12:54.966Z,100244.77
2018-01-02T11:13:57.480Z,100248.74
2018-01-02T11:14:59.944Z,100255.93
2018-01-02T11:16:02.420Z,100252.30
2018-01-02T11:17:04.874Z,100253.66
2018-01-02T11:18:07.364Z,100257.59
2018-01-02T11:19:09.814Z,100258.03
2018-01-02T11:20:12.262Z,100269.77
2018-01-02T11:21:14.728Z,100267.92
2018-01-02T11:22:17.191Z,100255.77
2018-01-02T11:23:19.668Z,100257.40
2018-01-02T11:24:22.131Z,100259.30
2018-01-02T11:25:24.594Z,100263.30
2018-01-02T11:26:27.046Z,100267.24
2018-01-02T11:27:29.508Z,100262.18
2018-01-02T11:28:31.983Z,100263.56
2018-01-02T11:29:34.456Z,100261.92
2018-01-02T11:30:36.923Z,100259.64
2018-01-02T11:31:41.168Z,100267.59
2018-01-02T11:32:43.622Z,100266.15
2018-01-02T11:33:46.085Z,100263.27
2018-01-02T11:34:48.534Z,100260.51
2018-01-02T11:35:52.173Z,100267.44
2018-01-02T11:36:54.899Z,100271.84
2018-01-02T11:37:57.382Z,100273.92
2018-01-02T11:38:59.857Z,100284.91
2018-01-02T11:40:02.325Z,100270.31
2018-01-02T11:41:04.782Z,100275.27
2018-01-02T11:42:07.234Z,100275.27
2018-01-02T11:43:09.701Z,100271.16
2018-01-02T11:44:12.174Z,100273.39
2018-01-02T11:45:14.671Z,100271.30
2018-01-02T11:46:17.143Z,100270.71
2018-01-02T11:47:19.611Z,100273.19
2018-01-02T11:48:22.076Z,100271.98
2018-01-02T11:49:24.552Z,100267.67
2018-01-02T11:50:27.072Z,100271.50
2018-01-02T11:51:29.550Z,100269.11
2018-01-02T11:52:32.037Z,100269.22
2018-01-02T11:53:34.501Z,100265.85
2018-01-02T11:54:36.971Z,100260.94
2018-01-02T11:55:39.425Z,100258.64
2018-01-02T11:56:41.878Z,100259.18
2018-01-02T11:57:44.343Z,100253.23
2018-01-02T11:58:46.816Z,100254.01
2018-01-02T11:59:49.266Z,100252.59
2018-01-02T12:00:51.938Z,100246.00
2018-01-02T12:01:54.696Z,100248.69
2018-01-02T12:02:57.760Z,100253.52
2018-01-02T12:04:00.221Z,100248.94
2018-01-02T12:05:02.703Z,100243.02
2018-01-02T12:06:05.186Z,100240.02
2018-01-02T12:07:07.660Z,100242.46